Time;durP1;ratioP1;P1;durP2;ratioP2;P2;SDS_P1;SDS_P2;PMS_P1;PMS_P2;Temp;Humidity;BMP_temperature;BMP_pressure;BME280_temperature;BME280_humidity;BME280_pressure;Samples;Min_cycle;Max_cycle;Signal;HPM_P1;HPM_P2
2023/12/08 00:00:01;;;;;;;17.42;7.50;;;;;;;;;;5083784;28;20048;-64
2023/12/08 00:02:28;;;;;;;16.33;7.45;;;;;;;;;;5106004;28;20360;-62
2023/12/08 00:04:56;;;;;;;17.15;7.20;;;;;;;;;;5105490;28;20048;-65
2023/12/08 00:07:23;;;;;;;18.73;7.47;;;;;;;;;;5105114;28;20069;-63
2023/12/08 00:09:50;;;;;;;14.45;7.25;;;;;;;;;;5101547;28;20055;-63
2023/12/08 00:12:17;;;;;;;19.35;7.82;;;;;;;;;;5105979;28;20047;-62
2023/12/08 00:14:46;;;;;;;15.27;6.95;;;;;;;;;;5086748;28;20060;-62
2023/12/08 00:17:13;;;;;;;16.92;7.15;;;;;;;;;;5103663;28;20089;-63
2023/12/08 00:19:41;;;;;;;15.15;7.05;;;;;;;;;;5098018;28;20059;-62
2023/12/08 00:22:08;;;;;;;14.90;6.97;;;;;;;;;;5103189;28;20215;-62
2023/12/08 00:24:35;;;;;;;13.48;6.53;;;;;;;;;;5102816;28;20051;-65
2023/12/08 00:27:02;;;;;;;17.20;6.85;;;;;;;;;;5106666;28;20052;-62
2023/12/08 00:29:29;;;;;;;18.70;7.15;;;;;;;;;;5105459;28;20066;-63
2023/12/08 00:31:58;;;;;;;11.63;5.72;;;;;;;;;;5105621;28;20054;-63
2023/12/08 00:34:26;;;;;;;14.73;7.28;;;;;;;;;;5103547;28;20047;-63
2023/12/08 00:36:53;;;;;;;16.33;7.53;;;;;;;;;;5101527;28;20083;-62
2023/12/08 00:39:22;;;;;;;13.98;7.22;;;;;;;;;;5103159;28;20483;-62
2023/12/08 00:41:49;;;;;;;14.38;6.75;;;;;;;;;;5101766;28;20052;-62
2023/12/08 00:44:16;;;;;;;15.27;6.72;;;;;;;;;;5099325;28;20048;-63
2023/12/08 00:46:43;;;;;;;13.90;6.57;;;;;;;;;;5101099;28;20048;-62
2023/12/08 00:49:12;;;;;;;16.98;6.88;;;;;;;;;;5104948;28;20055;-62
2023/12/08 00:51:39;;;;;;;13.73;7.00;;;;;;;;;;5102684;28;20050;-62
2023/12/08 00:54:06;;;;;;;17.98;6.47;;;;;;;;;;5102213;28;20047;-62
2023/12/08 00:56:34;;;;;;;14.07;6.95;;;;;;;;;;5101019;28;20048;-63
2023/12/08 00:59:01;;;;;;;14.07;6.32;;;;;;;;;;5082641;28;20060;-62
2023/12/08 01:01:28;;;;;;;15.48;7.30;;;;;;;;;;5106074;28;20036;-62
2023/12/08 01:03:55;;;;;;;15.95;6.93;;;;;;;;;;5103977;28;20402;-63
2023/12/08 01:06:24;;;;;;;14.55;7.00;;;;;;;;;;5106993;28;20052;-64
2023/12/08 01:08:51;;;;;;;16.65;6.57;;;;;;;;;;5106757;28;20044;-62
2023/12/08 01:11:18;;;;;;;14.90;6.82;;;;;;;;;;5104765;28;20410;-63
2023/12/08 01:13:45;;;;;;;13.77;6.40;;;;;;;;;;5110098;28;20039;-62
2023/12/08 01:16:13;;;;;;;13.70;6.53;;;;;;;;;;5108186;28;20483;-62
2023/12/08 01:18:40;;;;;;;12.50;6.32;;;;;;;;;;5109204;28;20047;-62
2023/12/08 01:21:07;;;;;;;13.43;6.70;;;;;;;;;;5110805;28;20066;-62
2023/12/08 01:23:36;;;;;;;14.98;6.82;;;;;;;;;;5109417;28;20122;-62
2023/12/08 01:26:03;;;;;;;12.95;6.03;;;;;;;;;;5105401;28;20043;-64
2023/12/08 01:28:30;;;;;;;14.52;6.65;;;;;;;;;;5107206;28;20059;-62
2023/12/08 01:30:58;;;;;;;14.55;6.78;;;;;;;;;;5091458;28;20074;-64
2023/12/08 01:33:25;;;;;;;15.75;6.57;;;;;;;;;;5109555;28;20062;-63
2023/12/08 01:35:52;;;;;;;14.68;6.47;;;;;;;;;;5106152;28;20060;-63
2023/12/08 01:38:19;;;;;;;13.90;6.05;;;;;;;;;;5102486;28;20514;-62
2023/12/08 01:40:48;;;;;;;12.98;5.95;;;;;;;;;;5104022;28;20047;-64
2023/12/08 01:43:15;;;;;;;13.68;6.45;;;;;;;;;;5107644;28;20040;-63
2023/12/08 01:45:42;;;;;;;16.02;6.55;;;;;;;;;;5105071;28;20048;-62
2023/12/08 01:48:10;;;;;;;14.20;6.65;;;;;;;;;;5109370;28;20054;-65
2023/12/08 01:50:38;;;;;;;13.52;6.35;;;;;;;;;;5107398;28;20035;-62
2023/12/08 01:53:06;;;;;;;14.85;6.72;;;;;;;;;;5090482;28;20054;-63
2023/12/08 01:55:33;;;;;;;14.45;7.22;;;;;;;;;;5103191;28;20233;-62
2023/12/08 01:58:02;;;;;;;11.93;5.97;;;;;;;;;;5105879;28;20040;-62
2023/12/08 02:00:29;;;;;;;15.05;6.47;;;;;;;;;;5109518;28;20478;-62
2023/12/08 02:02:58;;;;;;;12.88;6.13;;;;;;;;;;5088839;28;20495;-63
2023/12/08 02:05:27;;;;;;;15.05;7.28;;;;;;;;;;5102226;28;20048;-63
2023/12/08 02:07:55;;;;;;;11.75;6.18;;;;;;;;;;5090447;28;20482;-62
2023/12/08 02:10:22;;;;;;;13.55;6.63;;;;;;;;;;5104061;28;20101;-62
2023/12/08 02:12:50;;;;;;;13.73;6.82;;;;;;;;;;5103246;28;20067;-62
2023/12/08 02:15:18;;;;;;;13.35;6.80;;;;;;;;;;5102285;28;20137;-62
2023/12/08 02:17:46;;;;;;;15.75;6.93;;;;;;;;;;5108484;28;20047;-62
2023/12/08 02:20:14;;;;;;;12.52;6.15;;;;;;;;;;5107150;28;20126;-63
2023/12/08 02:22:41;;;;;;;13.02;6.35;;;;;;;;;;5096386;28;20047;-63
2023/12/08 02:25:10;;;;;;;13.65;6.50;;;;;;;;;;5107004;28;20058;-62
2023/12/08 02:27:37;;;;;;;15.40;7.07;;;;;;;;;;5097357;28;20039;-62
2023/12/08 02:30:05;;;;;;;15.60;7.13;;;;;;;;;;5084631;28;20052;-62
2023/12/08 02:32:34;;;;;;;14.50;6.85;;;;;;;;;;5105308;28;20422;-62
2023/12/08 02:35:03;;;;;;;19.15;7.63;;;;;;;;;;5106590;28;20498;-63
2023/12/08 02:37:32;;;;;;;16.00;7.30;;;;;;;;;;5107486;28;20047;-63
2023/12/08 02:40:00;;;;;;;17.48;7.90;;;;;;;;;;5085287;28;20048;-62
2023/12/08 02:42:29;;;;;;;14.02;6.70;;;;;;;;;;5101404;28;20482;-65
2023/12/08 02:44:56;;;;;;;13.95;6.95;;;;;;;;;;5109046;28;20043;-63
2023/12/08 02:47:23;;;;;;;18.05;7.72;;;;;;;;;;5095893;28;20059;-63
2023/12/08 02:49:51;;;;;;;15.15;7.60;;;;;;;;;;5102211;28;20054;-63
2023/12/08 02:52:18;;;;;;;14.80;7.25;;;;;;;;;;5103848;28;20121;-63
2023/12/08 02:54:48;;;;;;;17.13;7.50;;;;;;;;;;5101911;28;20048;-61
2023/12/08 02:57:15;;;;;;;16.35;7.10;;;;;;;;;;5093269;28;20048;-65
2023/12/08 02:59:44;;;;;;;17.73;7.63;;;;;;;;;;5101697;28;21351;-63
2023/12/08 03:02:11;;;;;;;14.98;6.93;;;;;;;;;;5108506;28;20054;-63
2023/12/08 03:04:38;;;;;;;16.60;7.88;;;;;;;;;;5105724;28;20043;-62
2023/12/08 03:07:06;;;;;;;20.23;7.93;;;;;;;;;;5102561;28;20088;-63
2023/12/08 03:09:33;;;;;;;16.65;7.95;;;;;;;;;;5106020;28;20062;-62
2023/12/08 03:12:03;;;;;;;17.88;7.75;;;;;;;;;;5095640;28;20059;-62
2023/12/08 03:14:30;;;;;;;16.85;7.63;;;;;;;;;;5099211;28;20055;-62
2023/12/08 03:16:59;;;;;;;17.33;7.80;;;;;;;;;;5099956;28;20059;-61
2023/12/08 03:19:26;;;;;;;13.80;7.05;;;;;;;;;;5100818;28;20059;-62
2023/12/08 03:21:53;;;;;;;16.27;7.55;;;;;;;;;;5103766;28;20058;-62
2023/12/08 03:24:20;;;;;;;16.33;8.07;;;;;;;;;;5103391;28;20050;-62
2023/12/08 03:26:47;;;;;;;16.40;7.75;;;;;;;;;;5106800;28;20130;-63
2023/12/08 03:29:16;;;;;;;16.23;7.85;;;;;;;;;;5106827;28;20051;-62
2023/12/08 03:31:43;;;;;;;17.17;8.05;;;;;;;;;;5104775;28;20529;-63
2023/12/08 03:34:12;;;;;;;18.08;8.75;;;;;;;;;;5103762;28;20070;-63
2023/12/08 03:36:39;;;;;;;19.67;8.27;;;;;;;;;;5106877;28;20433;-62
2023/12/08 03:39:06;;;;;;;19.20;8.75;;;;;;;;;;5084747;28;20047;-62
2023/12/08 03:41:33;;;;;;;17.67;8.32;;;;;;;;;;5104010;28;20047;-62
2023/12/08 03:44:01;;;;;;;18.10;8.98;;;;;;;;;;5104967;28;20047;-63
2023/12/08 03:46:28;;;;;;;18.48;8.27;;;;;;;;;;5106451;28;20055;-62
2023/12/08 03:48:55;;;;;;;15.35;8.05;;;;;;;;;;5106521;28;20074;-62
2023/12/08 03:51:24;;;;;;;21.73;8.88;;;;;;;;;;5102968;28;20051;-62
2023/12/08 03:53:51;;;;;;;18.13;8.93;;;;;;;;;;5102886;28;20051;-64
2023/12/08 03:56:18;;;;;;;19.35;9.07;;;;;;;;;;5094069;28;20498;-63
2023/12/08 03:58:46;;;;;;;19.73;8.82;;;;;;;;;;5097221;28;20506;-64
2023/12/08 04:01:17;;;;;;;14.55;8.02;;;;;;;;;;5103928;28;20048;-65
2023/12/08 04:03:44;;;;;;;17.30;8.75;;;;;;;;;;5103641;28;20464;-63
2023/12/08 04:06:11;;;;;;;18.20;9.00;;;;;;;;;;5101209;28;20130;-62
2023/12/08 04:08:40;;;;;;;15.05;8.45;;;;;;;;;;5108792;28;20062;-65
2023/12/08 04:11:07;;;;;;;18.80;8.40;;;;;;;;;;5102292;28;20054;-62
2023/12/08 04:13:35;;;;;;;20.50;9.10;;;;;;;;;;5099272;28;20040;-62
2023/12/08 04:16:02;;;;;;;23.42;8.55;;;;;;;;;;5100718;28;20052;-62
2023/12/08 04:18:30;;;;;;;19.27;9.45;;;;;;;;;;5089365;28;20059;-63
2023/12/08 04:20:57;;;;;;;21.33;8.82;;;;;;;;;;5099265;28;20048;-62
2023/12/08 04:23:25;;;;;;;20.00;8.82;;;;;;;;;;5106180;28;20043;-62
2023/12/08 04:25:53;;;;;;;18.05;8.50;;;;;;;;;;5098621;28;20048;-62
2023/12/08 04:28:20;;;;;;;18.98;9.55;;;;;;;;;;5100525;28;20052;-63
2023/12/08 04:30:48;;;;;;;17.88;9.15;;;;;;;;;;5106359;28;20047;-62
2023/12/08 04:33:15;;;;;;;25.23;10.23;;;;;;;;;;5100626;28;20127;-63
2023/12/08 04:35:42;;;;;;;23.15;10.50;;;;;;;;;;5106798;28;20475;-62
2023/12/08 04:38:09;;;;;;;18.27;9.18;;;;;;;;;;5086108;28;20060;-64
2023/12/08 04:40:37;;;;;;;20.75;9.85;;;;;;;;;;5099561;28;20048;-62
2023/12/08 04:43:05;;;;;;;22.25;10.30;;;;;;;;;;5101759;28;20050;-62
2023/12/08 04:45:33;;;;;;;22.15;10.38;;;;;;;;;;5085031;28;20652;-61
2023/12/08 04:48:00;;;;;;;25.58;10.13;;;;;;;;;;5089704;28;20076;-62
2023/12/08 04:50:27;;;;;;;23.05;10.15;;;;;;;;;;5109699;28;20048;-61
2023/12/08 04:52:54;;;;;;;21.00;9.95;;;;;;;;;;5108975;28;20062;-62
2023/12/08 04:55:21;;;;;;;24.30;10.85;;;;;;;;;;5107543;28;20058;-62
2023/12/08 04:57:49;;;;;;;23.40;10.65;;;;;;;;;;5109513;28;20058;-61
2023/12/08 05:00:18;;;;;;;23.73;10.77;;;;;;;;;;5107418;28;20066;-62
2023/12/08 05:02:45;;;;;;;26.05;10.73;;;;;;;;;;5107242;28;20091;-62
2023/12/08 05:05:13;;;;;;;22.67;10.50;;;;;;;;;;5106114;28;20040;-63
2023/12/08 05:07:40;;;;;;;21.00;9.43;;;;;;;;;;5111377;28;20055;-62
2023/12/08 05:10:07;;;;;;;21.98;10.80;;;;;;;;;;5106357;28;20502;-61
2023/12/08 05:12:35;;;;;;;22.77;11.20;;;;;;;;;;5093367;28;20047;-61
2023/12/08 05:15:02;;;;;;;26.40;10.82;;;;;;;;;;5101647;28;20055;-62
2023/12/08 05:17:31;;;;;;;25.77;10.52;;;;;;;;;;5111093;28;20047;-62
2023/12/08 05:19:58;;;;;;;27.85;11.20;;;;;;;;;;5108506;28;20075;-62
2023/12/08 05:22:25;;;;;;;25.70;10.80;;;;;;;;;;5104993;28;20118;-63
2023/12/08 05:24:52;;;;;;;24.83;11.27;;;;;;;;;;5106365;28;20048;-62
2023/12/08 05:27:20;;;;;;;23.33;11.10;;;;;;;;;;5105298;28;20066;-61
2023/12/08 05:29:47;;;;;;;23.60;10.98;;;;;;;;;;5098421;28;20058;-63
2023/12/08 05:32:14;;;;;;;24.17;11.15;;;;;;;;;;5110410;28;20426;-61
2023/12/08 05:34:43;;;;;;;28.17;11.68;;;;;;;;;;5105109;28;20518;-62
2023/12/08 05:37:10;;;;;;;25.40;11.00;;;;;;;;;;5100233;28;20056;-62
2023/12/08 05:39:37;;;;;;;29.20;11.65;;;;;;;;;;5104555;28;20558;-62
2023/12/08 05:42:04;;;;;;;26.92;11.35;;;;;;;;;;5082443;28;20491;-61
2023/12/08 05:44:32;;;;;;;27.75;10.57;;;;;;;;;;5109553;28;20050;-62
2023/12/08 05:46:59;;;;;;;26.92;11.07;;;;;;;;;;5109577;28;20044;-62
2023/12/08 05:49:26;;;;;;;30.88;11.52;;;;;;;;;;5105069;28;20051;-61
2023/12/08 05:51:55;;;;;;;22.55;10.70;;;;;;;;;;5100552;28;20511;-62
2023/12/08 05:54:22;;;;;;;26.67;11.40;;;;;;;;;;5107876;28;20411;-61
2023/12/08 05:56:50;;;;;;;25.63;10.65;;;;;;;;;;5099486;28;20057;-62
2023/12/08 05:59:17;;;;;;;25.33;11.40;;;;;;;;;;5109642;28;20063;-63
2023/12/08 06:01:44;;;;;;;24.10;11.00;;;;;;;;;;5105701;28;20048;-62
2023/12/08 06:04:11;;;;;;;23.27;11.00;;;;;;;;;;5107482;28;20079;-61
2023/12/08 06:06:40;;;;;;;22.45;10.80;;;;;;;;;;5087727;28;20054;-61
2023/12/08 06:09:09;;;;;;;27.30;10.95;;;;;;;;;;5101039;28;20090;-62
2023/12/08 06:11:37;;;;;;;27.90;11.77;;;;;;;;;;5107351;28;20043;-61
2023/12/08 06:14:06;;;;;;;27.63;10.85;;;;;;;;;;5097938;28;20109;-62
2023/12/08 06:16:33;;;;;;;31.17;12.30;;;;;;;;;;5097557;28;20044;-63
2023/12/08 06:19:00;;;;;;;27.88;12.10;;;;;;;;;;5093703;27;20451;-63
2023/12/08 06:21:28;;;;;;;24.92;11.88;;;;;;;;;;5090457;28;20054;-61
2023/12/08 06:23:55;;;;;;;30.77;12.18;;;;;;;;;;5080441;28;20047;-61
2023/12/08 06:26:24;;;;;;;26.70;11.57;;;;;;;;;;5103398;28;20059;-61
2023/12/08 06:28:51;;;;;;;28.05;12.00;;;;;;;;;;5099892;28;20054;-63
2023/12/08 06:31:18;;;;;;;34.55;12.32;;;;;;;;;;5107605;28;20054;-62
2023/12/08 06:33:45;;;;;;;27.27;12.65;;;;;;;;;;5107235;28;20052;-61
2023/12/08 06:36:13;;;;;;;26.77;12.20;;;;;;;;;;5102708;28;20050;-62
2023/12/08 06:38:40;;;;;;;27.02;12.02;;;;;;;;;;5089679;28;20535;-61
2023/12/08 06:41:07;;;;;;;29.98;12.38;;;;;;;;;;5097826;28;20063;-63
2023/12/08 06:43:36;;;;;;;30.63;12.43;;;;;;;;;;5100262;28;20376;-61
2023/12/08 06:46:03;;;;;;;29.00;12.45;;;;;;;;;;5105535;28;20052;-61
2023/12/08 06:48:31;;;;;;;32.67;13.25;;;;;;;;;;5109132;28;20047;-61
2023/12/08 06:50:58;;;;;;;33.58;13.85;;;;;;;;;;5099588;28;20051;-63
2023/12/08 06:53:25;;;;;;;30.85;12.55;;;;;;;;;;5105212;28;20836;-61
2023/12/08 06:55:52;;;;;;;27.15;12.63;;;;;;;;;;5096660;28;20039;-61
2023/12/08 06:58:20;;;;;;;31.05;12.18;;;;;;;;;;5104905;28;20051;-62
2023/12/08 07:00:48;;;;;;;36.53;13.55;;;;;;;;;;5102239;28;20043;-61
2023/12/08 07:03:16;;;;;;;31.95;13.38;;;;;;;;;;5102420;28;20044;-62
2023/12/08 07:05:43;;;;;;;31.05;12.95;;;;;;;;;;5101956;28;20583;-62
2023/12/08 07:08:10;;;;;;;33.00;14.02;;;;;;;;;;5095111;28;20463;-61
2023/12/08 07:10:42;;;;;;;32.97;12.50;;;;;;;;;;5106068;28;20043;-61
2023/12/08 07:13:09;;;;;;;31.63;12.68;;;;;;;;;;5099847;28;20352;-61
2023/12/08 07:15:37;;;;;;;35.75;14.00;;;;;;;;;;5105046;28;20650;-61
2023/12/08 07:18:05;;;;;;;36.20;12.68;;;;;;;;;;5098952;28;20047;-61
2023/12/08 07:20:33;;;;;;;38.88;14.43;;;;;;;;;;5100081;28;20325;-62
2023/12/08 07:23:00;;;;;;;34.85;13.55;;;;;;;;;;5098979;28;20048;-61
2023/12/08 07:25:27;;;;;;;33.85;13.48;;;;;;;;;;5097782;28;20051;-61
2023/12/08 07:27:55;;;;;;;36.58;13.13;;;;;;;;;;5087771;28;20052;-61
2023/12/08 07:30:22;;;;;;;33.20;13.95;;;;;;;;;;5102532;28;20488;-61
2023/12/08 07:32:50;;;;;;;32.20;13.32;;;;;;;;;;5106875;28;20050;-61
2023/12/08 07:35:19;;;;;;;34.70;13.23;;;;;;;;;;5105523;28;20101;-62
2023/12/08 07:37:47;;;;;;;38.20;13.90;;;;;;;;;;5083499;28;20052;-63
2023/12/08 07:40:14;;;;;;;37.90;12.55;;;;;;;;;;5098308;28;20079;-61
2023/12/08 07:42:42;;;;;;;34.13;12.50;;;;;;;;;;5104295;28;20043;-62
2023/12/08 07:45:10;;;;;;;35.08;13.60;;;;;;;;;;5103118;28;20047;-61
2023/12/08 07:47:38;;;;;;;32.35;13.43;;;;;;;;;;5102211;28;20112;-61
2023/12/08 07:50:06;;;;;;;33.25;13.43;;;;;;;;;;5107201;28;20047;-61
2023/12/08 07:52:36;;;;;;;36.03;12.98;;;;;;;;;;5101877;28;20057;-62
2023/12/08 07:55:03;;;;;;;31.15;13.57;;;;;;;;;;5098053;28;20056;-62
2023/12/08 07:57:30;;;;;;;35.38;13.43;;;;;;;;;;5101876;28;20128;-62
2023/12/08 07:59:58;;;;;;;35.38;14.32;;;;;;;;;;5108660;28;20056;-61
2023/12/08 08:02:25;;;;;;;31.20;13.30;;;;;;;;;;5101831;28;20039;-61
2023/12/08 08:04:52;;;;;;;35.05;13.52;;;;;;;;;;5103757;28;20036;-62
2023/12/08 08:07:20;;;;;;;35.42;14.35;;;;;;;;;;5105818;28;20470;-61
2023/12/08 08:09:48;;;;;;;32.03;13.77;;;;;;;;;;5108555;28;20047;-62
2023/12/08 08:12:17;;;;;;;39.05;13.52;;;;;;;;;;5099916;28;20052;-62
2023/12/08 08:14:44;;;;;;;37.58;14.52;;;;;;;;;;5102815;28;20093;-61
2023/12/08 08:17:11;;;;;;;38.47;14.52;;;;;;;;;;5104570;28;20478;-63
2023/12/08 08:19:41;;;;;;;33.67;14.13;;;;;;;;;;5106243;28;20051;-62
2023/12/08 08:22:08;;;;;;;33.80;14.05;;;;;;;;;;5084613;28;20052;-62
2023/12/08 08:24:35;;;;;;;46.55;15.90;;;;;;;;;;5099241;28;20040;-61
2023/12/08 08:27:04;;;;;;;34.67;13.75;;;;;;;;;;5100110;28;20604;-61
2023/12/08 08:29:32;;;;;;;39.80;14.88;;;;;;;;;;5080645;28;20062;-62
2023/12/08 08:31:59;;;;;;;42.60;16.25;;;;;;;;;;5100184;28;20541;-62
2023/12/08 08:34:26;;;;;;;37.65;14.68;;;;;;;;;;5105120;28;20078;-62
2023/12/08 08:36:54;;;;;;;36.10;15.13;;;;;;;;;;5105687;28;20138;-62
2023/12/08 08:39:21;;;;;;;40.10;14.98;;;;;;;;;;5106627;28;20055;-65
2023/12/08 08:41:48;;;;;;;35.05;14.60;;;;;;;;;;5082386;28;20052;-62
2023/12/08 08:44:17;;;;;;;36.92;14.95;;;;;;;;;;5101742;28;20048;-62
2023/12/08 08:46:44;;;;;;;35.78;14.75;;;;;;;;;;5086363;28;20165;-62
2023/12/08 08:49:12;;;;;;;37.45;14.23;;;;;;;;;;5104604;28;20048;-61
2023/12/08 08:51:40;;;;;;;36.90;14.43;;;;;;;;;;5107541;28;20040;-61
2023/12/08 08:54:07;;;;;;;36.10;14.68;;;;;;;;;;5103907;28;20130;-61
2023/12/08 08:56:35;;;;;;;36.58;14.27;;;;;;;;;;5105562;28;20044;-61
2023/12/08 08:59:03;;;;;;;38.97;15.02;;;;;;;;;;5100141;28;20050;-61
2023/12/08 09:01:32;;;;;;;34.55;14.60;;;;;;;;;;5106917;28;20544;-61
2023/12/08 09:03:59;;;;;;;36.92;14.30;;;;;;;;;;5104047;28;20128;-62
2023/12/08 09:06:27;;;;;;;36.60;15.10;;;;;;;;;;5105234;28;20047;-61
2023/12/08 09:08:54;;;;;;;35.50;14.85;;;;;;;;;;5105172;28;20047;-62
2023/12/08 09:11:21;;;;;;;35.78;14.80;;;;;;;;;;5083655;28;20055;-61
2023/12/08 09:13:49;;;;;;;42.28;14.90;;;;;;;;;;5102329;28;20053;-61
2023/12/08 09:16:16;;;;;;;35.90;15.02;;;;;;;;;;5107564;28;20047;-62
2023/12/08 09:18:45;;;;;;;42.10;14.32;;;;;;;;;;5104993;28;20044;-61
2023/12/08 09:21:12;;;;;;;35.88;14.45;;;;;;;;;;5102064;28;20044;-62
2023/12/08 09:23:39;;;;;;;37.88;14.25;;;;;;;;;;5101940;28;20126;-63
2023/12/08 09:26:07;;;;;;;34.33;14.43;;;;;;;;;;5099430;28;20054;-62
2023/12/08 09:28:34;;;;;;;37.30;13.63;;;;;;;;;;5099567;28;20429;-62
2023/12/08 09:31:01;;;;;;;36.72;15.90;;;;;;;;;;5102373;28;20059;-61
2023/12/08 09:33:29;;;;;;;37.00;14.48;;;;;;;;;;5107077;28;20109;-63
2023/12/08 09:35:58;;;;;;;42.13;15.13;;;;;;;;;;5095948;28;20051;-61
2023/12/08 09:38:25;;;;;;;37.72;14.98;;;;;;;;;;5085711;28;20048;-61
2023/12/08 09:40:53;;;;;;;33.55;15.00;;;;;;;;;;5105103;28;20066;-61
2023/12/08 09:43:23;;;;;;;38.90;14.02;;;;;;;;;;5101308;28;20051;-61
2023/12/08 09:45:51;;;;;;;39.75;15.13;;;;;;;;;;5106056;28;20078;-61
2023/12/08 09:48:19;;;;;;;36.28;14.20;;;;;;;;;;5108223;28;20044;-62
2023/12/08 09:50:47;;;;;;;36.00;14.50;;;;;;;;;;5109618;28;20052;-60
2023/12/08 09:53:16;;;;;;;42.22;15.57;;;;;;;;;;5109640;28;20040;-61
2023/12/08 09:55:43;;;;;;;38.88;16.40;;;;;;;;;;5099120;28;20051;-62
2023/12/08 09:58:11;;;;;;;36.67;15.05;;;;;;;;;;5102581;28;20483;-62
2023/12/08 10:00:39;;;;;;;42.92;15.00;;;;;;;;;;5102887;28;20066;-61
2023/12/08 10:03:07;;;;;;;40.70;15.25;;;;;;;;;;5102436;28;20055;-61
2023/12/08 10:05:34;;;;;;;32.85;14.35;;;;;;;;;;5101131;28;20189;-61
2023/12/08 10:08:03;;;;;;;36.17;14.43;;;;;;;;;;5105054;28;20044;-62
2023/12/08 10:10:31;;;;;;;42.40;16.10;;;;;;;;;;5104719;28;20055;-61
2023/12/08 10:12:59;;;;;;;38.58;15.35;;;;;;;;;;5094054;28;20055;-61
2023/12/08 10:15:27;;;;;;;35.40;14.82;;;;;;;;;;5096790;28;21329;-61
2023/12/08 10:17:54;;;;;;;41.28;16.63;;;;;;;;;;5102916;28;20040;-62
2023/12/08 10:20:22;;;;;;;40.88;15.98;;;;;;;;;;5090824;28;20782;-61
2023/12/08 10:22:50;;;;;;;44.05;14.90;;;;;;;;;;5099789;28;20468;-61
2023/12/08 10:25:18;;;;;;;41.13;15.50;;;;;;;;;;5102942;27;20044;-62
2023/12/08 10:27:49;;;;;;;37.65;14.80;;;;;;;;;;5102771;28;20395;-61
2023/12/08 10:30:17;;;;;;;42.17;15.77;;;;;;;;;;5087160;28;20120;-62
2023/12/08 10:32:44;;;;;;;40.80;15.00;;;;;;;;;;5102494;28;20112;-62
2023/12/08 10:35:12;;;;;;;37.05;14.80;;;;;;;;;;5088953;28;20055;-61
2023/12/08 10:37:40;;;;;;;41.85;16.60;;;;;;;;;;5105936;28;20411;-62
2023/12/08 10:40:09;;;;;;;38.67;15.95;;;;;;;;;;5081619;28;20076;-61
2023/12/08 10:42:36;;;;;;;41.22;15.60;;;;;;;;;;5106538;28;20116;-61
2023/12/08 10:45:10;;;;;;;49.90;15.90;;;;;;;;;;5102904;28;20043;-62
2023/12/08 10:47:38;;;;;;;47.42;16.08;;;;;;;;;;5104584;28;20135;-64
2023/12/08 10:50:06;;;;;;;43.38;15.15;;;;;;;;;;5096047;28;20060;-61
2023/12/08 10:52:33;;;;;;;43.72;15.93;;;;;;;;;;5104395;28;20050;-63
2023/12/08 10:55:00;;;;;;;43.38;16.35;;;;;;;;;;5103764;28;20047;-61
2023/12/08 10:57:28;;;;;;;45.22;16.52;;;;;;;;;;5107401;28;20048;-62
2023/12/08 10:59:59;;;;;;;43.85;16.50;;;;;;;;;;5105830;28;20051;-62
2023/12/08 11:02:31;;;;;;;38.38;15.27;;;;;;;;;;5107737;28;20050;-62
2023/12/08 11:05:01;;;;;;;42.50;17.33;;;;;;;;;;5104876;28;20514;-63
2023/12/08 11:07:33;;;;;;;49.33;17.33;;;;;;;;;;5097650;28;20096;-62
2023/12/08 11:10:02;;;;;;;47.05;16.17;;;;;;;;;;5107265;28;20051;-61
2023/12/08 11:12:29;;;;;;;40.13;16.35;;;;;;;;;;5095385;28;20054;-62
2023/12/08 11:14:59;;;;;;;43.90;16.02;;;;;;;;;;5109618;28;20048;-62
2023/12/08 11:17:34;;;;;;;37.83;15.60;;;;;;;;;;5106425;28;20052;-63
2023/12/08 11:20:03;;;;;;;48.78;16.85;;;;;;;;;;5098085;28;20090;-61
2023/12/08 11:22:30;;;;;;;51.47;16.52;;;;;;;;;;5103644;28;20411;-62
2023/12/08 11:24:59;;;;;;;45.80;15.90;;;;;;;;;;5100009;28;20044;-62
2023/12/08 11:27:32;;;;;;;45.53;16.02;;;;;;;;;;5106533;28;20047;-62
2023/12/08 11:30:02;;;;;;;42.25;16.55;;;;;;;;;;5100450;28;20371;-62
2023/12/08 11:32:33;;;;;;;53.67;16.38;;;;;;;;;;5081927;28;20055;-62
2023/12/08 11:35:02;;;;;;;47.17;16.48;;;;;;;;;;5102998;28;20060;-62
2023/12/08 11:37:30;;;;;;;46.65;16.27;;;;;;;;;;5108135;27;20047;-62
2023/12/08 11:40:01;;;;;;;46.10;15.52;;;;;;;;;;5104287;28;20054;-62
2023/12/08 11:42:29;;;;;;;56.70;17.35;;;;;;;;;;5100366;28;20044;-62
2023/12/08 11:44:58;;;;;;;49.75;16.63;;;;;;;;;;5085487;28;20035;-62
2023/12/08 11:47:26;;;;;;;53.60;16.55;;;;;;;;;;5104978;28;20055;-61
2023/12/08 11:49:56;;;;;;;55.00;16.42;;;;;;;;;;5106100;28;20047;-62
2023/12/08 11:52:26;;;;;;;43.40;16.38;;;;;;;;;;5106283;28;20039;-63
2023/12/08 11:55:07;;;;;;;46.45;16.48;;;;;;;;;;5108557;28;20047;-62
2023/12/08 11:57:36;;;;;;;49.92;17.30;;;;;;;;;;5103311;28;20525;-62
2023/12/08 12:00:04;;;;;;;47.30;16.17;;;;;;;;;;5107968;28;20481;-61
2023/12/08 12:02:31;;;;;;;47.47;16.40;;;;;;;;;;5099241;28;20496;-62
2023/12/08 12:05:00;;;;;;;46.92;17.58;;;;;;;;;;5106491;28;20051;-62
2023/12/08 12:07:28;;;;;;;43.13;15.85;;;;;;;;;;5083493;28;20062;-62
2023/12/08 12:09:57;;;;;;;47.90;16.13;;;;;;;;;;5103267;28;20055;-63
2023/12/08 12:12:25;;;;;;;48.58;16.90;;;;;;;;;;5101792;28;20059;-62
2023/12/08 12:14:56;;;;;;;46.47;16.48;;;;;;;;;;5099104;28;20105;-61
2023/12/08 12:17:24;;;;;;;52.33;16.67;;;;;;;;;;5104708;28;20048;-62
2023/12/08 12:19:51;;;;;;;47.42;16.13;;;;;;;;;;5103446;28;20059;-62
2023/12/08 12:22:20;;;;;;;46.80;15.55;;;;;;;;;;5107379;28;20067;-62
2023/12/08 12:24:48;;;;;;;50.53;16.95;;;;;;;;;;5102047;28;20044;-61
2023/12/08 12:27:15;;;;;;;55.05;17.10;;;;;;;;;;5095532;28;20047;-64
2023/12/08 12:29:42;;;;;;;41.45;16.60;;;;;;;;;;5097869;28;20040;-62
2023/12/08 12:32:10;;;;;;;42.22;16.45;;;;;;;;;;5107905;28;20510;-62
2023/12/08 12:34:38;;;;;;;51.30;15.93;;;;;;;;;;5101519;28;20050;-62
2023/12/08 12:37:06;;;;;;;53.20;15.65;;;;;;;;;;5086946;28;20048;-62
2023/12/08 12:39:36;;;;;;;52.85;16.67;;;;;;;;;;5104783;28;20125;-61
2023/12/08 12:42:05;;;;;;;44.60;16.33;;;;;;;;;;5105120;28;20045;-61
2023/12/08 12:44:39;;;;;;;46.85;16.55;;;;;;;;;;5096841;28;20606;-62
2023/12/08 12:47:09;;;;;;;47.38;16.63;;;;;;;;;;5100740;28;20044;-61
2023/12/08 12:49:37;;;;;;;50.10;17.42;;;;;;;;;;5101738;28;20056;-63
2023/12/08 12:52:05;;;;;;;48.22;16.70;;;;;;;;;;5093700;28;20060;-63
2023/12/08 12:54:34;;;;;;;53.97;17.05;;;;;;;;;;5102453;28;20044;-63
2023/12/08 12:57:03;;;;;;;52.80;16.58;;;;;;;;;;5103427;28;20089;-62
2023/12/08 12:59:32;;;;;;;47.45;15.80;;;;;;;;;;5095212;28;20044;-62
2023/12/08 13:02:01;;;;;;;40.30;15.50;;;;;;;;;;5105773;28;20059;-62
2023/12/08 13:04:29;;;;;;;42.53;14.95;;;;;;;;;;5103899;28;20056;-61
2023/12/08 13:06:57;;;;;;;44.15;14.82;;;;;;;;;;5107929;28;20054;-62
2023/12/08 13:09:29;;;;;;;46.50;15.32;;;;;;;;;;5110684;28;20682;-61
2023/12/08 13:11:56;;;;;;;42.13;15.52;;;;;;;;;;5105329;28;20047;-64
2023/12/08 13:14:26;;;;;;;41.35;15.80;;;;;;;;;;5102984;28;20043;-64
2023/12/08 13:16:53;;;;;;;44.03;14.88;;;;;;;;;;5102398;28;20058;-61
2023/12/08 13:19:21;;;;;;;49.10;15.35;;;;;;;;;;5106123;28;20515;-62
2023/12/08 13:21:48;;;;;;;42.17;15.02;;;;;;;;;;5096502;28;20782;-62
2023/12/08 13:24:15;;;;;;;35.72;14.30;;;;;;;;;;5099299;28;20047;-62
2023/12/08 13:26:43;;;;;;;41.78;16.02;;;;;;;;;;5102775;28;20487;-63
2023/12/08 13:29:10;;;;;;;51.53;16.13;;;;;;;;;;5107735;28;20047;-63
2023/12/08 13:31:39;;;;;;;45.92;16.02;;;;;;;;;;5106971;28;20058;-62
2023/12/08 13:34:06;;;;;;;46.58;16.23;;;;;;;;;;5106173;28;20047;-61
2023/12/08 13:36:33;;;;;;;43.75;14.75;;;;;;;;;;5091550;28;20059;-63
2023/12/08 13:39:01;;;;;;;48.53;16.73;;;;;;;;;;5107519;28;20482;-62
2023/12/08 13:41:29;;;;;;;44.58;16.23;;;;;;;;;;5109089;28;20059;-61
2023/12/08 13:43:56;;;;;;;47.83;16.48;;;;;;;;;;5104001;28;20122;-62
2023/12/08 13:46:23;;;;;;;49.40;16.55;;;;;;;;;;5105045;28;20040;-62
2023/12/08 13:48:52;;;;;;;50.72;16.45;;;;;;;;;;5101153;28;20039;-63
2023/12/08 13:51:19;;;;;;;46.97;15.77;;;;;;;;;;5104764;28;20058;-61
2023/12/08 13:53:47;;;;;;;47.00;15.77;;;;;;;;;;5104977;28;20074;-62
2023/12/08 13:56:15;;;;;;;66.32;16.40;;;;;;;;;;5109555;28;20058;-63
2023/12/08 13:58:42;;;;;;;48.15;15.40;;;;;;;;;;5104015;28;20104;-63
2023/12/08 14:01:10;;;;;;;45.92;15.70;;;;;;;;;;5106322;28;20066;-61
2023/12/08 14:03:39;;;;;;;47.22;16.17;;;;;;;;;;5107068;28;20071;-62
2023/12/08 14:06:08;;;;;;;58.53;16.23;;;;;;;;;;5107502;28;20043;-62
2023/12/08 14:08:35;;;;;;;59.20;16.45;;;;;;;;;;5108201;28;20134;-63
2023/12/08 14:11:04;;;;;;;57.55;15.98;;;;;;;;;;5106039;28;20055;-62
2023/12/08 14:13:32;;;;;;;55.00;15.52;;;;;;;;;;5104889;28;20054;-64
2023/12/08 14:15:59;;;;;;;66.30;15.82;;;;;;;;;;5107066;28;20096;-61
2023/12/08 14:18:29;;;;;;;51.90;14.98;;;;;;;;;;5105973;28;20063;-64
2023/12/08 14:20:56;;;;;;;63.08;16.67;;;;;;;;;;5101539;28;20054;-62
2023/12/08 14:23:25;;;;;;;66.10;16.10;;;;;;;;;;5101280;28;20123;-62